sensor_id;sensor_type;location;lat;lon;timestamp;P1;durP1;ratioP1;P2;durP2;ratioP2
25905;SDS011;13713;52.552;13.204;2024-01-30T00:02:21;19.95;;;12.90;;
25905;SDS011;13713;52.552;13.204;2024-01-30T00:04:46;20.33;;;12.88;;
25905;SDS011;13713;52.552;13.204;2024-01-30T00:07:12;22.35;;;13.40;;
25905;SDS011;13713;52.552;13.204;2024-01-30T00:09:38;22.42;;;13.23;;
25905;SDS011;13713;52.552;13.204;2024-01-30T00:12:06;20.75;;;12.45;;
25905;SDS011;13713;52.552;13.204;2024-01-30T00:14:32;22.17;;;12.85;;
25905;SDS011;13713;52.552;13.204;2024-01-30T00:16:57;21.23;;;12.70;;
25905;SDS011;13713;52.552;13.204;2024-01-30T00:19:23;20.33;;;12.77;;
25905;SDS011;13713;52.552;13.204;2024-01-30T00:21:49;22.20;;;13.35;;
25905;SDS011;13713;52.552;13.204;2024-01-30T00:24:14;21.17;;;12.80;;
25905;SDS011;13713;52.552;13.204;2024-01-30T00:26:40;22.70;;;12.60;;
25905;SDS011;13713;52.552;13.204;2024-01-30T00:29:05;19.95;;;12.57;;
25905;SDS011;13713;52.552;13.204;2024-01-30T00:31:31;19.60;;;12.68;;
25905;SDS011;13713;52.552;13.204;2024-01-30T00:33:57;19.08;;;11.75;;
25905;SDS011;13713;52.552;13.204;2024-01-30T00:36:22;18.90;;;12.38;;
25905;SDS011;13713;52.552;13.204;2024-01-30T00:38:48;20.10;;;12.85;;
25905;SDS011;13713;52.552;13.204;2024-01-30T00:41:14;20.92;;;12.32;;
25905;SDS011;13713;52.552;13.204;2024-01-30T00:43:42;20.30;;;12.75;;
25905;SDS011;13713;52.552;13.204;2024-01-30T00:46:07;19.83;;;12.10;;
25905;SDS011;13713;52.552;13.204;2024-01-30T00:48:33;18.85;;;12.10;;
25905;SDS011;13713;52.552;13.204;2024-01-30T00:50:59;19.77;;;12.57;;
25905;SDS011;13713;52.552;13.204;2024-01-30T00:53:24;17.25;;;11.57;;
25905;SDS011;13713;52.552;13.204;2024-01-30T00:55:50;20.65;;;12.27;;
25905;SDS011;13713;52.552;13.204;2024-01-30T00:58:16;18.45;;;11.45;;
25905;SDS011;13713;52.552;13.204;2024-01-30T01:00:41;21.00;;;13.00;;
25905;SDS011;13713;52.552;13.204;2024-01-30T01:03:07;19.08;;;11.60;;
25905;SDS011;13713;52.552;13.204;2024-01-30T01:05:33;17.95;;;11.88;;
25905;SDS011;13713;52.552;13.204;2024-01-30T01:07:58;20.20;;;11.60;;
25905;SDS011;13713;52.552;13.204;2024-01-30T01:10:24;18.73;;;11.85;;
25905;SDS011;13713;52.552;13.204;2024-01-30T01:12:50;19.73;;;12.40;;
25905;SDS011;13713;52.552;13.204;2024-01-30T01:15:15;17.75;;;11.48;;
25905;SDS011;13713;52.552;13.204;2024-01-30T01:17:41;17.75;;;11.23;;
25905;SDS011;13713;52.552;13.204;2024-01-30T01:20:07;17.88;;;11.70;;
25905;SDS011;13713;52.552;13.204;2024-01-30T01:22:34;18.58;;;11.77;;
25905;SDS011;13713;52.552;13.204;2024-01-30T01:25:00;18.98;;;11.63;;
25905;SDS011;13713;52.552;13.204;2024-01-30T01:27:26;19.83;;;12.15;;
25905;SDS011;13713;52.552;13.204;2024-01-30T01:29:52;19.80;;;11.38;;
25905;SDS011;13713;52.552;13.204;2024-01-30T01:32:18;18.85;;;11.77;;
25905;SDS011;13713;52.552;13.204;2024-01-30T01:34:44;19.15;;;12.10;;
25905;SDS011;13713;52.552;13.204;2024-01-30T01:37:10;15.93;;;10.57;;
25905;SDS011;13713;52.552;13.204;2024-01-30T01:39:36;18.70;;;11.02;;
25905;SDS011;13713;52.552;13.204;2024-01-30T01:42:01;20.13;;;11.63;;
25905;SDS011;13713;52.552;13.204;2024-01-30T01:44:27;18.13;;;11.90;;
25905;SDS011;13713;52.552;13.204;2024-01-30T01:46:53;18.45;;;11.45;;
25905;SDS011;13713;52.552;13.204;2024-01-30T01:49:20;21.13;;;12.02;;
25905;SDS011;13713;52.552;13.204;2024-01-30T01:51:47;17.58;;;11.32;;
25905;SDS011;13713;52.552;13.204;2024-01-30T01:54:14;18.90;;;12.18;;
25905;SDS011;13713;52.552;13.204;2024-01-30T01:56:40;19.48;;;11.07;;
25905;SDS011;13713;52.552;13.204;2024-01-30T01:59:08;19.05;;;11.25;;
25905;SDS011;13713;52.552;13.204;2024-01-30T02:01:37;15.40;;;10.68;;
25905;SDS011;13713;52.552;13.204;2024-01-30T02:04:03;16.98;;;11.20;;
25905;SDS011;13713;52.552;13.204;2024-01-30T02:06:30;16.85;;;11.35;;
25905;SDS011;13713;52.552;13.204;2024-01-30T02:08:57;19.20;;;12.10;;
25905;SDS011;13713;52.552;13.204;2024-01-30T02:11:22;19.25;;;12.20;;
25905;SDS011;13713;52.552;13.204;2024-01-30T02:13:49;18.23;;;11.38;;
25905;SDS011;13713;52.552;13.204;2024-01-30T02:16:15;17.95;;;11.65;;
25905;SDS011;13713;52.552;13.204;2024-01-30T02:18:42;16.25;;;11.02;;
25905;SDS011;13713;52.552;13.204;2024-01-30T02:21:08;18.42;;;11.02;;
25905;SDS011;13713;52.552;13.204;2024-01-30T02:23:34;16.85;;;10.30;;
25905;SDS011;13713;52.552;13.204;2024-01-30T02:26:00;18.17;;;11.38;;
25905;SDS011;13713;52.552;13.204;2024-01-30T02:28:25;16.95;;;11.20;;
25905;SDS011;13713;52.552;13.204;2024-01-30T02:30:52;16.15;;;10.38;;
25905;SDS011;13713;52.552;13.204;2024-01-30T02:33:18;16.98;;;11.18;;
25905;SDS011;13713;52.552;13.204;2024-01-30T02:35:44;16.52;;;10.98;;
25905;SDS011;13713;52.552;13.204;2024-01-30T02:38:09;16.20;;;10.95;;
25905;SDS011;13713;52.552;13.204;2024-01-30T02:40:35;15.50;;;10.02;;
25905;SDS011;13713;52.552;13.204;2024-01-30T02:43:01;17.83;;;11.77;;
25905;SDS011;13713;52.552;13.204;2024-01-30T02:45:27;16.58;;;11.02;;
25905;SDS011;13713;52.552;13.204;2024-01-30T02:47:53;16.35;;;10.65;;
25905;SDS011;13713;52.552;13.204;2024-01-30T02:50:19;16.75;;;10.70;;
25905;SDS011;13713;52.552;13.204;2024-01-30T02:52:45;16.20;;;10.88;;
25905;SDS011;13713;52.552;13.204;2024-01-30T02:55:11;17.70;;;10.93;;
25905;SDS011;13713;52.552;13.204;2024-01-30T02:57:37;17.98;;;11.27;;
25905;SDS011;13713;52.552;13.204;2024-01-30T03:00:03;16.08;;;10.85;;
25905;SDS011;13713;52.552;13.204;2024-01-30T03:02:31;16.95;;;10.68;;
25905;SDS011;13713;52.552;13.204;2024-01-30T03:04:59;17.33;;;11.05;;
25905;SDS011;13713;52.552;13.204;2024-01-30T03:07:25;16.35;;;10.77;;
25905;SDS011;13713;52.552;13.204;2024-01-30T03:09:51;16.08;;;10.38;;
25905;SDS011;13713;52.552;13.204;2024-01-30T03:12:16;16.45;;;10.70;;
25905;SDS011;13713;52.552;13.204;2024-01-30T03:14:42;16.60;;;10.90;;
25905;SDS011;13713;52.552;13.204;2024-01-30T03:17:07;17.75;;;11.70;;
25905;SDS011;13713;52.552;13.204;2024-01-30T03:19:33;14.63;;;10.15;;
25905;SDS011;13713;52.552;13.204;2024-01-30T03:21:59;17.38;;;11.20;;
25905;SDS011;13713;52.552;13.204;2024-01-30T03:24:25;15.77;;;10.30;;
25905;SDS011;13713;52.552;13.204;2024-01-30T03:26:51;15.25;;;10.73;;
25905;SDS011;13713;52.552;13.204;2024-01-30T03:29:16;14.77;;;10.35;;
25905;SDS011;13713;52.552;13.204;2024-01-30T03:31:42;14.63;;;9.77;;
25905;SDS011;13713;52.552;13.204;2024-01-30T03:34:08;16.60;;;10.77;;
25905;SDS011;13713;52.552;13.204;2024-01-30T03:36:33;16.73;;;10.77;;
25905;SDS011;13713;52.552;13.204;2024-01-30T03:38:59;18.67;;;10.70;;
25905;SDS011;13713;52.552;13.204;2024-01-30T03:41:26;16.75;;;10.65;;
25905;SDS011;13713;52.552;13.204;2024-01-30T03:43:51;16.88;;;10.38;;
25905;SDS011;13713;52.552;13.204;2024-01-30T03:46:17;16.17;;;10.25;;
25905;SDS011;13713;52.552;13.204;2024-01-30T03:48:43;16.45;;;9.90;;
25905;SDS011;13713;52.552;13.204;2024-01-30T03:51:09;15.75;;;9.95;;
25905;SDS011;13713;52.552;13.204;2024-01-30T03:53:40;16.75;;;10.18;;
25905;SDS011;13713;52.552;13.204;2024-01-30T03:56:06;14.95;;;10.07;;
25905;SDS011;13713;52.552;13.204;2024-01-30T03:58:32;15.70;;;10.02;;
25905;SDS011;13713;52.552;13.204;2024-01-30T04:00:58;17.65;;;10.80;;
25905;SDS011;13713;52.552;13.204;2024-01-30T04:03:23;15.45;;;10.23;;
25905;SDS011;13713;52.552;13.204;2024-01-30T04:05:49;15.73;;;10.25;;
25905;SDS011;13713;52.552;13.204;2024-01-30T04:08:16;14.63;;;9.25;;
25905;SDS011;13713;52.552;13.204;2024-01-30T04:10:42;13.80;;;9.43;;
25905;SDS011;13713;52.552;13.204;2024-01-30T04:13:08;14.32;;;9.90;;
25905;SDS011;13713;52.552;13.204;2024-01-30T04:15:34;15.60;;;10.10;;
25905;SDS011;13713;52.552;13.204;2024-01-30T04:18:00;16.63;;;10.07;;
25905;SDS011;13713;52.552;13.204;2024-01-30T04:20:25;14.45;;;9.90;;
25905;SDS011;13713;52.552;13.204;2024-01-30T04:22:51;14.95;;;9.75;;
25905;SDS011;13713;52.552;13.204;2024-01-30T04:25:17;16.83;;;10.40;;
25905;SDS011;13713;52.552;13.204;2024-01-30T04:27:42;17.75;;;11.05;;
25905;SDS011;13713;52.552;13.204;2024-01-30T04:30:08;16.85;;;11.02;;
25905;SDS011;13713;52.552;13.204;2024-01-30T04:32:35;16.17;;;11.13;;
25905;SDS011;13713;52.552;13.204;2024-01-30T04:35:01;17.33;;;10.80;;
25905;SDS011;13713;52.552;13.204;2024-01-30T04:37:26;15.20;;;10.27;;
25905;SDS011;13713;52.552;13.204;2024-01-30T04:39:52;15.30;;;9.88;;
25905;SDS011;13713;52.552;13.204;2024-01-30T04:42:18;16.70;;;10.80;;
25905;SDS011;13713;52.552;13.204;2024-01-30T04:44:43;15.15;;;9.73;;
25905;SDS011;13713;52.552;13.204;2024-01-30T04:47:09;17.00;;;10.88;;
25905;SDS011;13713;52.552;13.204;2024-01-30T04:49:38;14.93;;;9.85;;
25905;SDS011;13713;52.552;13.204;2024-01-30T04:52:05;15.73;;;10.38;;
25905;SDS011;13713;52.552;13.204;2024-01-30T04:54:31;16.90;;;11.38;;
25905;SDS011;13713;52.552;13.204;2024-01-30T04:56:57;14.07;;;9.93;;
25905;SDS011;13713;52.552;13.204;2024-01-30T04:59:23;15.85;;;10.55;;
25905;SDS011;13713;52.552;13.204;2024-01-30T05:01:49;14.68;;;10.52;;
25905;SDS011;13713;52.552;13.204;2024-01-30T05:04:15;16.63;;;10.88;;
25905;SDS011;13713;52.552;13.204;2024-01-30T05:06:40;15.45;;;10.00;;
25905;SDS011;13713;52.552;13.204;2024-01-30T05:09:06;15.57;;;10.52;;
25905;SDS011;13713;52.552;13.204;2024-01-30T05:11:36;15.57;;;10.45;;
25905;SDS011;13713;52.552;13.204;2024-01-30T05:14:05;16.65;;;11.27;;
25905;SDS011;13713;52.552;13.204;2024-01-30T05:16:31;16.25;;;11.30;;
25905;SDS011;13713;52.552;13.204;2024-01-30T05:18:57;15.88;;;10.60;;
25905;SDS011;13713;52.552;13.204;2024-01-30T05:21:23;16.50;;;10.80;;
25905;SDS011;13713;52.552;13.204;2024-01-30T05:23:49;15.48;;;10.50;;
25905;SDS011;13713;52.552;13.204;2024-01-30T05:26:15;15.90;;;10.90;;
25905;SDS011;13713;52.552;13.204;2024-01-30T05:28:40;14.35;;;10.00;;
25905;SDS011;13713;52.552;13.204;2024-01-30T05:31:06;15.60;;;10.50;;
25905;SDS011;13713;52.552;13.204;2024-01-30T05:37:19;15.13;;;10.68;;
25905;SDS011;13713;52.552;13.204;2024-01-30T05:39:45;15.85;;;11.20;;
25905;SDS011;13713;52.552;13.204;2024-01-30T05:42:11;16.10;;;11.23;;
25905;SDS011;13713;52.552;13.204;2024-01-30T05:44:36;15.25;;;11.00;;
25905;SDS011;13713;52.552;13.204;2024-01-30T05:47:02;15.82;;;10.88;;
25905;SDS011;13713;52.552;13.204;2024-01-30T05:49:28;15.45;;;11.23;;
25905;SDS011;13713;52.552;13.204;2024-01-30T05:51:54;16.92;;;11.07;;
25905;SDS011;13713;52.552;13.204;2024-01-30T05:54:19;15.35;;;10.50;;
25905;SDS011;13713;52.552;13.204;2024-01-30T05:56:45;16.95;;;11.35;;
25905;SDS011;13713;52.552;13.204;2024-01-30T05:59:10;15.70;;;10.77;;
25905;SDS011;13713;52.552;13.204;2024-01-30T06:01:36;17.25;;;11.88;;
25905;SDS011;13713;52.552;13.204;2024-01-30T06:04:02;27.40;;;19.58;;
25905;SDS011;13713;52.552;13.204;2024-01-30T06:06:27;81.53;;;35.40;;
25905;SDS011;13713;52.552;13.204;2024-01-30T06:08:54;1591.78;;;590.75;;
25905;SDS011;13713;52.552;13.204;2024-01-30T06:11:21;917.15;;;361.42;;
25905;SDS011;13713;52.552;13.204;2024-01-30T06:13:46;383.33;;;131.27;;
25905;SDS011;13713;52.552;13.204;2024-01-30T06:16:12;159.07;;;57.38;;
25905;SDS011;13713;52.552;13.204;2024-01-30T06:18:38;56.05;;;26.30;;
25905;SDS011;13713;52.552;13.204;2024-01-30T06:21:04;67.63;;;29.70;;
25905;SDS011;13713;52.552;13.204;2024-01-30T06:23:30;43.10;;;22.27;;
25905;SDS011;13713;52.552;13.204;2024-01-30T06:25:56;63.03;;;24.75;;
25905;SDS011;13713;52.552;13.204;2024-01-30T06:28:21;41.50;;;20.52;;
25905;SDS011;13713;52.552;13.204;2024-01-30T06:30:47;40.38;;;19.83;;
25905;SDS011;13713;52.552;13.204;2024-01-30T06:33:13;39.45;;;20.25;;
25905;SDS011;13713;52.552;13.204;2024-01-30T06:35:38;36.55;;;19.13;;
25905;SDS011;13713;52.552;13.204;2024-01-30T06:38:05;37.88;;;19.27;;
25905;SDS011;13713;52.552;13.204;2024-01-30T06:40:31;36.90;;;18.98;;
25905;SDS011;13713;52.552;13.204;2024-01-30T06:42:57;48.55;;;22.17;;
25905;SDS011;13713;52.552;13.204;2024-01-30T06:45:22;47.10;;;24.35;;
25905;SDS011;13713;52.552;13.204;2024-01-30T06:47:48;54.22;;;26.85;;
25905;SDS011;13713;52.552;13.204;2024-01-30T06:50:14;57.50;;;27.92;;
25905;SDS011;13713;52.552;13.204;2024-01-30T06:52:39;71.07;;;30.80;;
25905;SDS011;13713;52.552;13.204;2024-01-30T06:55:05;62.03;;;34.15;;
25905;SDS011;13713;52.552;13.204;2024-01-30T06:57:31;46.40;;;24.05;;
25905;SDS011;13713;52.552;13.204;2024-01-30T06:59:57;42.42;;;22.00;;
25905;SDS011;13713;52.552;13.204;2024-01-30T07:02:23;41.22;;;22.67;;
25905;SDS011;13713;52.552;13.204;2024-01-30T07:04:49;43.25;;;21.42;;
25905;SDS011;13713;52.552;13.204;2024-01-30T07:07:14;40.20;;;20.23;;
25905;SDS011;13713;52.552;13.204;2024-01-30T07:09:40;39.13;;;20.17;;
25905;SDS011;13713;52.552;13.204;2024-01-30T07:12:06;42.38;;;19.35;;
25905;SDS011;13713;52.552;13.204;2024-01-30T07:14:32;36.30;;;17.35;;
25905;SDS011;13713;52.552;13.204;2024-01-30T07:16:58;32.05;;;16.42;;
25905;SDS011;13713;52.552;13.204;2024-01-30T07:19:24;33.55;;;15.75;;
25905;SDS011;13713;52.552;13.204;2024-01-30T07:21:49;37.33;;;17.13;;
25905;SDS011;13713;52.552;13.204;2024-01-30T07:24:15;43.88;;;20.00;;
25905;SDS011;13713;52.552;13.204;2024-01-30T07:26:40;39.60;;;19.98;;
25905;SDS011;13713;52.552;13.204;2024-01-30T07:29:06;40.53;;;19.88;;
25905;SDS011;13713;52.552;13.204;2024-01-30T07:31:32;40.42;;;18.52;;
25905;SDS011;13713;52.552;13.204;2024-01-30T07:33:57;137.20;;;49.58;;
25905;SDS011;13713;52.552;13.204;2024-01-30T07:36:23;234.77;;;84.35;;
25905;SDS011;13713;52.552;13.204;2024-01-30T07:38:49;191.73;;;66.10;;
25905;SDS011;13713;52.552;13.204;2024-01-30T07:41:14;81.95;;;30.13;;
25905;SDS011;13713;52.552;13.204;2024-01-30T07:43:40;159.98;;;59.17;;
25905;SDS011;13713;52.552;13.204;2024-01-30T07:46:06;166.75;;;85.75;;
25905;SDS011;13713;52.552;13.204;2024-01-30T07:48:33;132.27;;;72.40;;
25905;SDS011;13713;52.552;13.204;2024-01-30T07:50:59;166.93;;;81.25;;
25905;SDS011;13713;52.552;13.204;2024-01-30T07:53:25;112.43;;;46.90;;
25905;SDS011;13713;52.552;13.204;2024-01-30T07:55:52;100.60;;;41.08;;
25905;SDS011;13713;52.552;13.204;2024-01-30T07:58:17;648.03;;;250.48;;
25905;SDS011;13713;52.552;13.204;2024-01-30T08:00:44;212.43;;;85.13;;
25905;SDS011;13713;52.552;13.204;2024-01-30T08:03:10;196.90;;;70.05;;
25905;SDS011;13713;52.552;13.204;2024-01-30T08:05:37;139.35;;;55.42;;
25905;SDS011;13713;52.552;13.204;2024-01-30T08:08:04;125.28;;;46.03;;
25905;SDS011;13713;52.552;13.204;2024-01-30T08:10:30;206.40;;;99.43;;
25905;SDS011;13713;52.552;13.204;2024-01-30T08:12:55;298.42;;;189.43;;
25905;SDS011;13713;52.552;13.204;2024-01-30T08:15:21;313.88;;;181.68;;
25905;SDS011;13713;52.552;13.204;2024-01-30T08:17:47;239.57;;;94.00;;
25905;SDS011;13713;52.552;13.204;2024-01-30T08:20:12;207.25;;;78.82;;
25905;SDS011;13713;52.552;13.204;2024-01-30T08:22:39;194.25;;;73.40;;
25905;SDS011;13713;52.552;13.204;2024-01-30T08:25:05;165.70;;;62.38;;
25905;SDS011;13713;52.552;13.204;2024-01-30T08:27:31;248.13;;;104.22;;
25905;SDS011;13713;52.552;13.204;2024-01-30T08:29:57;221.85;;;93.15;;
25905;SDS011;13713;52.552;13.204;2024-01-30T08:32:23;234.43;;;97.40;;
25905;SDS011;13713;52.552;13.204;2024-01-30T08:34:49;202.77;;;84.78;;
25905;SDS011;13713;52.552;13.204;2024-01-30T08:37:14;207.60;;;85.47;;
25905;SDS011;13713;52.552;13.204;2024-01-30T08:39:42;193.70;;;79.57;;
25905;SDS011;13713;52.552;13.204;2024-01-30T08:42:08;200.80;;;79.38;;
25905;SDS011;13713;52.552;13.204;2024-01-30T08:44:34;183.63;;;76.43;;
25905;SDS011;13713;52.552;13.204;2024-01-30T08:46:59;171.57;;;69.82;;
25905;SDS011;13713;52.552;13.204;2024-01-30T08:49:25;287.08;;;119.80;;
25905;SDS011;13713;52.552;13.204;2024-01-30T08:51:50;201.18;;;86.35;;
25905;SDS011;13713;52.552;13.204;2024-01-30T08:54:16;224.98;;;91.13;;
25905;SDS011;13713;52.552;13.204;2024-01-30T08:56:42;219.68;;;93.95;;
25905;SDS011;13713;52.552;13.204;2024-01-30T08:59:08;225.32;;;98.95;;
25905;SDS011;13713;52.552;13.204;2024-01-30T09:01:34;219.93;;;94.45;;
25905;SDS011;13713;52.552;13.204;2024-01-30T09:03:59;351.98;;;190.60;;
25905;SDS011;13713;52.552;13.204;2024-01-30T09:06:25;375.02;;;225.98;;
25905;SDS011;13713;52.552;13.204;2024-01-30T09:08:53;248.43;;;124.80;;
25905;SDS011;13713;52.552;13.204;2024-01-30T09:11:19;192.90;;;91.70;;
25905;SDS011;13713;52.552;13.204;2024-01-30T09:13:44;193.23;;;88.90;;
25905;SDS011;13713;52.552;13.204;2024-01-30T09:16:10;207.90;;;96.53;;
25905;SDS011;13713;52.552;13.204;2024-01-30T09:18:36;221.38;;;104.22;;
25905;SDS011;13713;52.552;13.204;2024-01-30T09:21:01;210.45;;;97.43;;
25905;SDS011;13713;52.552;13.204;2024-01-30T09:23:27;230.77;;;105.28;;
25905;SDS011;13713;52.552;13.204;2024-01-30T09:25:53;234.20;;;104.07;;
25905;SDS011;13713;52.552;13.204;2024-01-30T09:28:19;210.95;;;92.03;;
25905;SDS011;13713;52.552;13.204;2024-01-30T09:30:45;210.88;;;96.95;;
25905;SDS011;13713;52.552;13.204;2024-01-30T09:33:10;303.55;;;123.82;;
25905;SDS011;13713;52.552;13.204;2024-01-30T09:35:36;278.33;;;168.85;;
25905;SDS011;13713;52.552;13.204;2024-01-30T09:38:02;248.32;;;130.63;;
25905;SDS011;13713;52.552;13.204;2024-01-30T09:40:28;885.88;;;375.08;;
25905;SDS011;13713;52.552;13.204;2024-01-30T09:42:54;303.45;;;152.38;;
25905;SDS011;13713;52.552;13.204;2024-01-30T09:45:24;221.20;;;101.07;;
25905;SDS011;13713;52.552;13.204;2024-01-30T09:47:50;244.98;;;109.60;;
25905;SDS011;13713;52.552;13.204;2024-01-30T09:50:16;210.73;;;95.43;;
25905;SDS011;13713;52.552;13.204;2024-01-30T09:52:43;210.60;;;92.78;;
25905;SDS011;13713;52.552;13.204;2024-01-30T09:55:09;333.55;;;203.98;;
25905;SDS011;13713;52.552;13.204;2024-01-30T09:57:35;355.17;;;171.25;;
25905;SDS011;13713;52.552;13.204;2024-01-30T10:00:04;517.13;;;326.27;;
25905;SDS011;13713;52.552;13.204;2024-01-30T10:02:39;245.13;;;117.15;;
25905;SDS011;13713;52.552;13.204;2024-01-30T10:05:05;236.23;;;102.95;;
25905;SDS011;13713;52.552;13.204;2024-01-30T10:07:33;799.47;;;392.30;;
25905;SDS011;13713;52.552;13.204;2024-01-30T10:09:59;707.15;;;346.48;;
25905;SDS011;13713;52.552;13.204;2024-01-30T10:12:29;656.45;;;331.98;;
25905;SDS011;13713;52.552;13.204;2024-01-30T10:14:56;260.88;;;122.68;;
25905;SDS011;13713;52.552;13.204;2024-01-30T10:17:24;578.90;;;398.23;;
25905;SDS011;13713;52.552;13.204;2024-01-30T10:19:50;260.75;;;129.20;;
25905;SDS011;13713;52.552;13.204;2024-01-30T10:22:17;1999.90;;;798.60;;
25905;SDS011;13713;52.552;13.204;2024-01-30T10:24:42;483.38;;;242.93;;
25905;SDS011;13713;52.552;13.204;2024-01-30T10:27:10;436.25;;;204.73;;
25905;SDS011;13713;52.552;13.204;2024-01-30T10:29:37;282.20;;;126.38;;
25905;SDS011;13713;52.552;13.204;2024-01-30T10:32:03;272.63;;;115.65;;
25905;SDS011;13713;52.552;13.204;2024-01-30T10:34:30;230.05;;;106.68;;
25905;SDS011;13713;52.552;13.204;2024-01-30T10:37:01;249.38;;;114.70;;
25905;SDS011;13713;52.552;13.204;2024-01-30T10:39:31;543.10;;;260.13;;
25905;SDS011;13713;52.552;13.204;2024-01-30T10:42:02;301.40;;;140.60;;
25905;SDS011;13713;52.552;13.204;2024-01-30T10:44:33;260.02;;;120.05;;
25905;SDS011;13713;52.552;13.204;2024-01-30T10:47:06;237.02;;;107.57;;
25905;SDS011;13713;52.552;13.204;2024-01-30T10:49:38;272.58;;;116.32;;
25905;SDS011;13713;52.552;13.204;2024-01-30T10:52:05;813.53;;;379.13;;
25905;SDS011;13713;52.552;13.204;2024-01-30T10:54:32;286.55;;;132.90;;
25905;SDS011;13713;52.552;13.204;2024-01-30T10:57:00;283.25;;;127.95;;
25905;SDS011;13713;52.552;13.204;2024-01-30T10:59:29;232.68;;;106.10;;
25905;SDS011;13713;52.552;13.204;2024-01-30T11:01:56;1999.90;;;677.97;;
25905;SDS011;13713;52.552;13.204;2024-01-30T11:04:23;476.45;;;199.95;;
25905;SDS011;13713;52.552;13.204;2024-01-30T11:06:50;362.48;;;159.43;;
25905;SDS011;13713;52.552;13.204;2024-01-30T11:09:17;650.30;;;277.30;;
25905;SDS011;13713;52.552;13.204;2024-01-30T11:11:56;239.77;;;109.03;;
25905;SDS011;13713;52.552;13.204;2024-01-30T11:14:26;216.20;;;108.13;;
25905;SDS011;13713;52.552;13.204;2024-01-30T11:16:56;857.28;;;370.70;;
25905;SDS011;13713;52.552;13.204;2024-01-30T11:19:26;238.45;;;108.45;;
25905;SDS011;13713;52.552;13.204;2024-01-30T11:21:52;767.22;;;339.80;;
25905;SDS011;13713;52.552;13.204;2024-01-30T11:24:19;247.15;;;109.60;;
25905;SDS011;13713;52.552;13.204;2024-01-30T11:26:48;223.23;;;100.35;;
25905;SDS011;13713;52.552;13.204;2024-01-30T11:29:27;455.63;;;188.27;;
25905;SDS011;13713;52.552;13.204;2024-01-30T11:31:57;315.20;;;134.32;;
25905;SDS011;13713;52.552;13.204;2024-01-30T11:34:23;358.30;;;165.98;;
25905;SDS011;13713;52.552;13.204;2024-01-30T11:36:53;245.43;;;116.88;;
25905;SDS011;13713;52.552;13.204;2024-01-30T11:39:28;231.55;;;105.05;;
25905;SDS011;13713;52.552;13.204;2024-01-30T11:41:55;1292.32;;;481.58;;
25905;SDS011;13713;52.552;13.204;2024-01-30T11:44:21;897.53;;;424.33;;
25905;SDS011;13713;52.552;13.204;2024-01-30T11:46:51;538.95;;;235.57;;
25905;SDS011;13713;52.552;13.204;2024-01-30T11:49:17;260.90;;;114.13;;
25905;SDS011;13713;52.552;13.204;2024-01-30T11:51:43;246.13;;;106.78;;
25905;SDS011;13713;52.552;13.204;2024-01-30T11:54:10;211.77;;;97.07;;
25905;SDS011;13713;52.552;13.204;2024-01-30T11:56:37;264.70;;;107.85;;
25905;SDS011;13713;52.552;13.204;2024-01-30T11:59:04;351.98;;;143.77;;
25905;SDS011;13713;52.552;13.204;2024-01-30T12:01:30;277.02;;;119.03;;
25905;SDS011;13713;52.552;13.204;2024-01-30T12:03:56;250.27;;;104.50;;
25905;SDS011;13713;52.552;13.204;2024-01-30T12:06:23;219.25;;;93.80;;
25905;SDS011;13713;52.552;13.204;2024-01-30T12:08:58;325.80;;;129.93;;
25905;SDS011;13713;52.552;13.204;2024-01-30T12:11:25;309.92;;;130.30;;
25905;SDS011;13713;52.552;13.204;2024-01-30T12:13:51;312.05;;;144.57;;
25905;SDS011;13713;52.552;13.204;2024-01-30T12:16:18;271.30;;;119.30;;
25905;SDS011;13713;52.552;13.204;2024-01-30T12:18:44;247.77;;;107.70;;
25905;SDS011;13713;52.552;13.204;2024-01-30T12:21:10;230.75;;;102.32;;
25905;SDS011;13713;52.552;13.204;2024-01-30T12:23:36;219.93;;;95.65;;
25905;SDS011;13713;52.552;13.204;2024-01-30T12:26:01;709.97;;;291.58;;
25905;SDS011;13713;52.552;13.204;2024-01-30T12:28:32;532.80;;;233.63;;
25905;SDS011;13713;52.552;13.204;2024-01-30T12:31:02;284.67;;;118.45;;
25905;SDS011;13713;52.552;13.204;2024-01-30T12:33:29;260.40;;;111.30;;
25905;SDS011;13713;52.552;13.204;2024-01-30T12:35:55;231.68;;;101.57;;
25905;SDS011;13713;52.552;13.204;2024-01-30T12:38:22;223.80;;;94.88;;
25905;SDS011;13713;52.552;13.204;2024-01-30T12:40:50;323.08;;;128.55;;
25905;SDS011;13713;52.552;13.204;2024-01-30T12:43:25;644.25;;;272.85;;
25905;SDS011;13713;52.552;13.204;2024-01-30T12:45:52;466.48;;;198.45;;
25905;SDS011;13713;52.552;13.204;2024-01-30T12:48:18;277.20;;;110.97;;
25905;SDS011;13713;52.552;13.204;2024-01-30T12:50:43;238.88;;;99.93;;
25905;SDS011;13713;52.552;13.204;2024-01-30T12:53:11;222.20;;;93.97;;
25905;SDS011;13713;52.552;13.204;2024-01-30T12:55:37;542.97;;;252.80;;
25905;SDS011;13713;52.552;13.204;2024-01-30T12:58:03;501.60;;;236.73;;
25905;SDS011;13713;52.552;13.204;2024-01-30T13:00:29;440.95;;;195.38;;
25905;SDS011;13713;52.552;13.204;2024-01-30T13:02:55;301.13;;;133.25;;
25905;SDS011;13713;52.552;13.204;2024-01-30T13:05:20;304.77;;;132.07;;
25905;SDS011;13713;52.552;13.204;2024-01-30T13:07:46;292.65;;;128.68;;
25905;SDS011;13713;52.552;13.204;2024-01-30T13:10:12;342.00;;;123.25;;
25905;SDS011;13713;52.552;13.204;2024-01-30T13:12:38;250.85;;;106.68;;
25905;SDS011;13713;52.552;13.204;2024-01-30T13:15:04;229.82;;;97.40;;
25905;SDS011;13713;52.552;13.204;2024-01-30T13:17:31;516.13;;;246.25;;
25905;SDS011;13713;52.552;13.204;2024-01-30T13:19:57;576.60;;;292.15;;
25905;SDS011;13713;52.552;13.204;2024-01-30T13:22:23;412.85;;;188.13;;
25905;SDS011;13713;52.552;13.204;2024-01-30T13:24:49;322.15;;;148.40;;
25905;SDS011;13713;52.552;13.204;2024-01-30T13:27:15;736.40;;;371.73;;
25905;SDS011;13713;52.552;13.204;2024-01-30T13:29:41;731.60;;;398.83;;
25905;SDS011;13713;52.552;13.204;2024-01-30T13:32:06;432.20;;;210.52;;
25905;SDS011;13713;52.552;13.204;2024-01-30T13:34:32;346.42;;;164.35;;
25905;SDS011;13713;52.552;13.204;2024-01-30T13:36:58;315.15;;;152.63;;
25905;SDS011;13713;52.552;13.204;2024-01-30T13:39:23;310.55;;;144.77;;
25905;SDS011;13713;52.552;13.204;2024-01-30T13:41:49;472.83;;;229.00;;
25905;SDS011;13713;52.552;13.204;2024-01-30T13:44:15;537.78;;;282.90;;
25905;SDS011;13713;52.552;13.204;2024-01-30T13:46:42;439.45;;;219.55;;
25905;SDS011;13713;52.552;13.204;2024-01-30T13:49:08;391.63;;;185.32;;
25905;SDS011;13713;52.552;13.204;2024-01-30T13:51:34;347.58;;;172.25;;
25905;SDS011;13713;52.552;13.204;2024-01-30T13:54:00;332.55;;;161.60;;
25905;SDS011;13713;52.552;13.204;2024-01-30T13:56:26;541.17;;;267.98;;
25905;SDS011;13713;52.552;13.204;2024-01-30T13:58:52;666.03;;;370.10;;